createdAt,value
2023-05-19T00:01:19.923Z,6.22
2023-05-19T00:03:54.588Z,5.93
2023-05-19T00:06:26.083Z,5.97
2023-05-19T00:08:59.955Z,5.90
2023-05-19T00:11:27.724Z,6.88
2023-05-19T00:13:56.007Z,6.43
2023-05-19T00:16:24.556Z,5.80
2023-05-19T00:18:52.098Z,6.15
2023-05-19T00:21:19.426Z,6.10
2023-05-19T00:23:46.445Z,6.65
2023-05-19T00:26:13.423Z,6.60
2023-05-19T00:28:40.335Z,6.25
2023-05-19T00:31:07.321Z,6.70
2023-05-19T00:33:34.430Z,5.85
2023-05-19T00:36:05.969Z,6.68
2023-05-19T00:38:34.493Z,6.78
2023-05-19T00:41:02.039Z,6.90
2023-05-19T00:43:30.383Z,6.65
2023-05-19T00:45:57.821Z,6.75
2023-05-19T00:48:25.688Z,6.38
2023-05-19T00:50:55.034Z,6.05
2023-05-19T00:55:48.683Z,5.93
2023-05-19T00:58:15.614Z,5.60
2023-05-19T01:00:43.719Z,6.18
2023-05-19T01:03:13.736Z,5.85
2023-05-19T01:05:41.934Z,6.35
2023-05-19T01:08:09.247Z,5.70
2023-05-19T01:10:36.263Z,6.00
2023-05-19T01:13:04.798Z,6.20
2023-05-19T01:15:36.204Z,6.25
2023-05-19T01:18:11.794Z,6.15
2023-05-19T01:20:53.475Z,6.10
2023-05-19T01:23:42.078Z,6.50
2023-05-19T01:26:15.258Z,6.50
2023-05-19T01:28:44.748Z,5.65
2023-05-19T01:31:12.100Z,5.68
2023-05-19T01:33:40.194Z,5.40
2023-05-19T01:36:07.715Z,5.88
2023-05-19T01:38:35.335Z,5.63
2023-05-19T01:41:04.125Z,5.93
2023-05-19T01:43:30.978Z,6.40
2023-05-19T01:45:59.071Z,6.15
2023-05-19T01:48:26.379Z,5.97
2023-05-19T01:50:53.242Z,7.32
2023-05-19T01:53:20.186Z,6.03
2023-05-19T01:55:50.368Z,6.80
2023-05-19T01:58:29.238Z,6.20
2023-05-19T02:01:05.251Z,6.03
2023-05-19T02:03:39.040Z,6.90
2023-05-19T02:06:30.169Z,6.63
2023-05-19T02:09:25.084Z,5.97
2023-05-19T02:12:33.264Z,6.45
2023-05-19T02:15:11.643Z,5.43
2023-05-19T02:17:48.246Z,6.00
2023-05-19T02:20:15.752Z,5.95
2023-05-19T02:22:42.770Z,5.90
2023-05-19T02:25:10.508Z,5.90
2023-05-19T02:27:39.013Z,6.22
2023-05-19T02:30:06.986Z,6.30
2023-05-19T02:32:34.363Z,6.10
2023-05-19T02:35:01.289Z,6.15
2023-05-19T02:37:31.370Z,5.90
2023-05-19T02:39:58.573Z,6.25
2023-05-19T02:42:25.439Z,6.18
2023-05-19T02:44:55.164Z,6.43
2023-05-19T02:47:22.377Z,6.20
2023-05-19T02:49:49.730Z,6.40
2023-05-19T02:52:16.611Z,6.30
2023-05-19T02:54:43.908Z,5.93
2023-05-19T02:57:11.449Z,5.72
2023-05-19T02:59:38.474Z,5.80
2023-05-19T03:02:05.436Z,6.20
2023-05-19T03:04:32.320Z,6.03
2023-05-19T03:06:59.219Z,6.07
2023-05-19T03:09:26.217Z,6.15
2023-05-19T03:11:53.026Z,6.45
2023-05-19T03:14:24.355Z,6.13
2023-05-19T03:16:51.702Z,6.53
2023-05-19T03:19:19.261Z,7.10
2023-05-19T03:21:46.859Z,5.70
2023-05-19T03:24:14.141Z,6.50
2023-05-19T03:26:42.390Z,6.40
2023-05-19T03:29:09.335Z,7.10
2023-05-19T03:31:36.327Z,6.50
2023-05-19T03:34:03.916Z,6.63
2023-05-19T03:36:40.169Z,6.10
2023-05-19T03:39:07.212Z,6.32
2023-05-19T03:41:34.381Z,6.13
2023-05-19T03:44:01.927Z,5.90
2023-05-19T03:46:28.944Z,6.03
2023-05-19T03:48:56.320Z,6.28
2023-05-19T03:51:23.338Z,6.60
2023-05-19T03:53:50.304Z,6.93
2023-05-19T03:56:18.749Z,6.63
2023-05-19T03:58:47.616Z,6.13
2023-05-19T04:01:14.652Z,5.88
2023-05-19T04:03:41.826Z,6.00
2023-05-19T04:06:09.297Z,5.80
2023-05-19T04:08:36.447Z,6.38
2023-05-19T04:11:03.388Z,6.80
2023-05-19T04:13:33.318Z,5.32
2023-05-19T04:16:00.495Z,6.10
2023-05-19T04:18:29.022Z,6.43
2023-05-19T04:20:56.417Z,6.43
2023-05-19T04:23:23.320Z,6.50
2023-05-19T04:25:50.295Z,7.13
2023-05-19T04:28:18.199Z,6.10
2023-05-19T04:30:46.926Z,6.70
2023-05-19T04:33:14.213Z,5.82
2023-05-19T04:35:41.312Z,7.07
2023-05-19T04:38:10.558Z,6.47
2023-05-19T04:40:37.692Z,5.78
2023-05-19T04:43:04.718Z,6.32
2023-05-19T04:45:33.335Z,6.43
2023-05-19T04:48:00.314Z,6.53
2023-05-19T04:50:28.872Z,7.03
2023-05-19T04:52:56.103Z,6.70
2023-05-19T04:55:23.232Z,6.75
2023-05-19T04:57:51.252Z,5.45
2023-05-19T05:00:19.488Z,5.63
2023-05-19T05:02:46.746Z,5.05
2023-05-19T05:05:13.794Z,6.22
2023-05-19T05:07:40.909Z,6.63
2023-05-19T05:10:09.095Z,6.72
2023-05-19T05:12:36.470Z,6.38
2023-05-19T05:15:05.290Z,6.55
2023-05-19T05:17:34.013Z,6.20
2023-05-19T05:20:02.497Z,5.70
2023-05-19T05:22:30.340Z,5.90
2023-05-19T05:24:57.718Z,6.22
2023-05-19T05:27:24.871Z,6.40
2023-05-19T05:29:53.159Z,5.85
2023-05-19T05:32:20.597Z,5.80
2023-05-19T05:34:47.823Z,6.53
2023-05-19T05:37:15.552Z,5.20
2023-05-19T05:39:42.712Z,5.70
2023-05-19T05:42:11.251Z,4.90
2023-05-19T05:44:38.493Z,4.82
2023-05-19T05:47:06.267Z,5.10
2023-05-19T05:49:37.080Z,5.00
2023-05-19T05:52:06.566Z,4.80
2023-05-19T05:54:34.431Z,5.10
2023-05-19T05:57:02.773Z,5.05
2023-05-19T05:59:30.296Z,5.25
2023-05-19T06:01:57.588Z,4.80
2023-05-19T06:04:26.532Z,4.97
2023-05-19T06:06:54.338Z,4.82
2023-05-19T06:09:21.663Z,4.90
2023-05-19T06:11:49.200Z,4.97
2023-05-19T06:14:16.394Z,5.07
2023-05-19T06:16:43.629Z,4.80
2023-05-19T06:19:10.623Z,4.72
2023-05-19T06:21:37.715Z,4.90
2023-05-19T06:24:05.253Z,4.32
2023-05-19T06:26:32.668Z,4.40
2023-05-19T06:29:00.019Z,4.97
2023-05-19T06:31:28.806Z,4.30
2023-05-19T06:33:56.278Z,4.50
2023-05-19T06:36:24.785Z,3.92
2023-05-19T06:38:52.278Z,4.68
2023-05-19T06:41:19.856Z,4.50
2023-05-19T06:43:46.892Z,5.45
2023-05-19T06:46:14.206Z,5.55
2023-05-19T06:48:41.556Z,5.10
2023-05-19T06:51:10.494Z,5.70
2023-05-19T06:53:37.500Z,5.55
2023-05-19T06:56:04.939Z,5.85
2023-05-19T06:58:32.102Z,5.28
2023-05-19T07:00:59.284Z,4.97
2023-05-19T07:03:27.770Z,5.40
2023-05-19T07:08:22.081Z,6.03
2023-05-19T07:10:49.238Z,5.80
2023-05-19T07:13:16.682Z,5.60
2023-05-19T07:15:43.987Z,5.40
2023-05-19T07:18:11.060Z,5.97
2023-05-19T07:20:38.109Z,6.15
2023-05-19T07:23:05.675Z,6.03
2023-05-19T07:25:33.576Z,5.90
2023-05-19T07:28:01.121Z,5.00
2023-05-19T07:30:28.817Z,5.13
2023-05-19T07:32:56.018Z,5.00
2023-05-19T07:35:23.125Z,4.80
2023-05-19T07:37:50.349Z,5.22
2023-05-19T07:40:17.409Z,5.47
2023-05-19T07:42:45.143Z,4.90
2023-05-19T07:45:12.261Z,4.20
2023-05-19T07:47:39.197Z,4.60
2023-05-19T07:50:06.806Z,4.63
2023-05-19T07:52:34.174Z,5.00
2023-05-19T07:55:01.289Z,4.90
2023-05-19T07:57:28.271Z,4.65
2023-05-19T07:59:55.343Z,4.50
2023-05-19T08:02:22.434Z,4.70
2023-05-19T08:04:49.644Z,4.80
2023-05-19T08:07:16.625Z,4.95
2023-05-19T08:09:43.848Z,4.53
2023-05-19T08:12:11.100Z,4.70
2023-05-19T08:14:38.150Z,4.97
2023-05-19T08:17:05.205Z,5.10
2023-05-19T08:19:32.304Z,4.93
2023-05-19T08:22:01.498Z,5.20
2023-05-19T08:24:32.974Z,5.00
2023-05-19T08:26:59.952Z,5.35
2023-05-19T08:29:27.070Z,4.85
2023-05-19T08:31:54.687Z,5.03
2023-05-19T08:34:22.461Z,4.70
2023-05-19T08:36:49.815Z,4.80
2023-05-19T08:39:18.820Z,6.07
2023-05-19T08:41:45.650Z,4.20
2023-05-19T08:44:12.638Z,4.80
2023-05-19T08:46:39.636Z,4.85
2023-05-19T08:49:12.621Z,5.25
2023-05-19T08:51:49.042Z,4.70
2023-05-19T08:54:16.281Z,4.85
2023-05-19T08:56:46.888Z,5.25
2023-05-19T08:59:14.852Z,5.22
2023-05-19T09:01:46.146Z,5.18
2023-05-19T09:04:13.589Z,5.20
2023-05-19T09:06:45.582Z,5.27
2023-05-19T09:09:12.686Z,5.18
2023-05-19T09:11:39.667Z,5.53
2023-05-19T09:14:06.683Z,5.38
2023-05-19T09:16:34.319Z,5.63
2023-05-19T09:19:01.787Z,5.30
2023-05-19T09:21:32.497Z,5.22
2023-05-19T09:24:06.671Z,6.15
2023-05-19T09:26:40.981Z,5.57
2023-05-19T09:29:17.762Z,5.93
2023-05-19T09:31:51.882Z,5.80
2023-05-19T09:34:19.380Z,5.05
2023-05-19T09:36:53.828Z,5.43
2023-05-19T09:39:25.686Z,5.50
2023-05-19T09:41:59.344Z,6.00
2023-05-19T09:44:30.698Z,5.90
2023-05-19T09:46:58.426Z,5.78
2023-05-19T09:49:29.899Z,5.47
2023-05-19T09:52:02.466Z,5.20
2023-05-19T09:54:29.842Z,5.20
2023-05-19T09:57:01.120Z,5.07
2023-05-19T09:59:32.114Z,5.90
2023-05-19T10:02:00.996Z,5.38
2023-05-19T10:04:29.926Z,5.70
2023-05-19T10:06:59.918Z,5.63
2023-05-19T10:09:28.717Z,5.97
2023-05-19T10:14:24.931Z,5.75
2023-05-19T10:16:53.398Z,5.85
2023-05-19T10:21:48.301Z,5.80
2023-05-19T10:24:15.199Z,6.10
2023-05-19T10:26:45.588Z,6.25
2023-05-19T10:29:13.909Z,6.28
2023-05-19T10:31:40.992Z,6.18
2023-05-19T10:34:24.544Z,6.00
2023-05-19T10:37:02.674Z,5.63
2023-05-19T10:39:32.236Z,5.95
2023-05-19T10:42:17.223Z,6.05
2023-05-19T10:45:05.820Z,6.13
2023-05-19T10:47:34.063Z,6.22
2023-05-19T10:50:01.471Z,6.32
2023-05-19T10:52:30.353Z,6.30
2023-05-19T10:54:58.576Z,6.18
2023-05-19T10:57:30.842Z,6.28
2023-05-19T10:59:58.074Z,6.20
2023-05-19T11:02:42.052Z,6.45
2023-05-19T11:05:18.422Z,6.15
2023-05-19T11:08:05.535Z,6.20
2023-05-19T11:10:32.657Z,6.78
2023-05-19T11:12:59.636Z,6.65
2023-05-19T11:15:28.164Z,6.57
2023-05-19T11:20:26.459Z,6.30
2023-05-19T11:23:11.274Z,6.00
2023-05-19T11:25:42.315Z,6.10
2023-05-19T11:28:13.609Z,7.20
2023-05-19T11:30:43.845Z,6.93
2023-05-19T11:33:11.289Z,6.68
2023-05-19T11:35:38.616Z,6.30
2023-05-19T11:38:07.124Z,6.55
2023-05-19T11:40:34.103Z,6.43
2023-05-19T11:43:02.355Z,6.50
2023-05-19T11:45:31.551Z,6.35
2023-05-19T11:48:03.048Z,6.45
2023-05-19T11:50:32.084Z,6.32
2023-05-19T11:55:28.089Z,6.30
2023-05-19T11:58:04.510Z,6.18
2023-05-19T12:00:38.024Z,6.18
2023-05-19T12:03:05.464Z,6.00
2023-05-19T12:05:35.406Z,6.60
2023-05-19T12:08:04.942Z,5.95
2023-05-19T12:10:32.148Z,6.63
2023-05-19T12:12:59.688Z,6.78
2023-05-19T12:15:26.846Z,6.72
2023-05-19T12:17:59.197Z,6.65
2023-05-19T12:20:26.912Z,6.72
2023-05-19T12:22:55.850Z,6.50
2023-05-19T12:25:23.265Z,6.70
2023-05-19T12:27:50.660Z,7.18
2023-05-19T12:30:17.580Z,6.88
2023-05-19T12:32:44.799Z,6.63
2023-05-19T12:35:11.987Z,6.18
2023-05-19T12:37:42.000Z,6.95
2023-05-19T12:40:09.682Z,6.60
2023-05-19T12:42:38.073Z,6.70
2023-05-19T12:45:05.626Z,6.50
2023-05-19T12:47:35.121Z,6.18
2023-05-19T12:50:04.155Z,5.90
2023-05-19T12:52:44.210Z,6.40
2023-05-19T12:55:12.449Z,6.28
2023-05-19T12:57:41.102Z,6.55
2023-05-19T13:00:23.172Z,5.18
2023-05-19T13:03:00.680Z,4.18
2023-05-19T13:05:30.108Z,5.07
2023-05-19T13:07:58.556Z,5.28
2023-05-19T13:10:29.653Z,4.88
2023-05-19T13:12:57.243Z,4.47
2023-05-19T13:15:26.749Z,5.22
2023-05-19T13:17:54.267Z,4.60
2023-05-19T13:20:22.608Z,4.43
2023-05-19T13:22:49.961Z,4.53
2023-05-19T13:25:17.252Z,4.70
2023-05-19T13:27:48.023Z,4.88
2023-05-19T13:30:16.575Z,5.40
2023-05-19T13:32:43.636Z,5.45
2023-05-19T13:35:11.298Z,5.13
2023-05-19T13:37:40.080Z,5.22
2023-05-19T13:40:08.328Z,6.13
2023-05-19T13:42:35.572Z,5.40
2023-05-19T13:45:02.976Z,5.50
2023-05-19T13:47:30.277Z,5.13
2023-05-19T13:49:57.918Z,4.93
2023-05-19T13:52:26.418Z,5.20
2023-05-19T13:54:54.876Z,5.18
2023-05-19T13:57:22.638Z,5.70
2023-05-19T14:00:01.521Z,5.63
2023-05-19T14:02:30.318Z,4.80
2023-05-19T14:04:57.937Z,4.97
2023-05-19T14:07:25.926Z,5.80
2023-05-19T14:09:53.503Z,5.60
2023-05-19T14:12:25.279Z,5.38
2023-05-19T14:14:58.813Z,5.45
2023-05-19T14:17:28.138Z,6.13
2023-05-19T14:19:55.223Z,6.57
2023-05-19T14:22:22.248Z,7.18
2023-05-19T14:24:49.512Z,7.60
2023-05-19T14:27:16.907Z,7.95
2023-05-19T14:29:43.960Z,8.10
2023-05-19T14:32:10.987Z,7.43
2023-05-19T14:34:37.949Z,7.70
2023-05-19T14:37:05.072Z,7.90
2023-05-19T14:39:32.075Z,8.38
2023-05-19T14:42:01.847Z,8.23
2023-05-19T14:44:33.340Z,8.65
2023-05-19T14:47:01.956Z,7.80
2023-05-19T14:49:29.204Z,8.90
2023-05-19T14:51:56.453Z,8.30
2023-05-19T14:54:23.349Z,8.63
2023-05-19T14:56:50.288Z,8.40
2023-05-19T14:59:17.363Z,8.60
2023-05-19T15:01:44.415Z,8.50
2023-05-19T15:04:11.397Z,8.77
2023-05-19T15:06:38.906Z,8.68
2023-05-19T15:09:06.106Z,7.55
2023-05-19T15:11:33.053Z,7.90
2023-05-19T15:13:59.987Z,8.55
2023-05-19T15:16:26.949Z,8.45
2023-05-19T15:18:54.237Z,7.75
2023-05-19T15:21:21.438Z,7.60
2023-05-19T15:23:48.476Z,7.18
2023-05-19T15:26:15.350Z,7.63
2023-05-19T15:28:42.472Z,7.80
2023-05-19T15:31:09.522Z,7.22
2023-05-19T15:33:37.027Z,6.95
2023-05-19T15:36:04.171Z,7.85
2023-05-19T15:38:32.034Z,8.05
2023-05-19T15:40:59.203Z,7.50
2023-05-19T15:43:26.236Z,8.05
2023-05-19T15:45:55.313Z,8.32
2023-05-19T15:50:49.317Z,7.63
2023-05-19T15:53:16.303Z,7.30
2023-05-19T15:55:43.428Z,7.60
2023-05-19T15:58:10.567Z,8.50
2023-05-19T16:00:37.626Z,7.20
2023-05-19T16:03:05.013Z,7.53
2023-05-19T16:05:32.103Z,7.38
2023-05-19T16:07:59.146Z,7.53
2023-05-19T16:10:26.250Z,8.27
2023-05-19T16:12:53.204Z,7.75
2023-05-19T16:15:20.277Z,8.07
2023-05-19T16:17:47.370Z,7.70
2023-05-19T16:20:14.406Z,8.13
2023-05-19T16:22:41.592Z,8.20
2023-05-19T16:25:08.795Z,8.13
2023-05-19T16:27:35.791Z,8.27
2023-05-19T16:30:03.559Z,8.10
2023-05-19T16:32:30.775Z,7.75
2023-05-19T16:34:57.660Z,8.40
2023-05-19T16:37:24.591Z,8.20
2023-05-19T16:39:51.695Z,8.88
2023-05-19T16:42:18.615Z,8.30
2023-05-19T16:44:45.575Z,8.48
2023-05-19T16:47:12.627Z,8.10
2023-05-19T16:49:41.021Z,8.57
2023-05-19T16:52:08.354Z,8.05
2023-05-19T16:54:35.500Z,8.52
2023-05-19T16:57:02.573Z,8.13
2023-05-19T16:59:29.529Z,8.40
2023-05-19T17:01:57.062Z,8.57
2023-05-19T17:04:24.465Z,8.13
2023-05-19T17:06:51.522Z,7.72
2023-05-19T17:09:25.090Z,7.75
2023-05-19T17:11:55.986Z,8.20
2023-05-19T17:14:23.231Z,8.32
2023-05-19T17:16:52.870Z,8.02
2023-05-19T17:19:19.932Z,7.95
2023-05-19T17:21:47.086Z,7.88
2023-05-19T17:24:14.077Z,8.30
2023-05-19T17:26:40.976Z,7.57
2023-05-19T17:29:07.995Z,8.00
2023-05-19T17:31:35.020Z,7.93
2023-05-19T17:34:02.013Z,8.18
2023-05-19T17:36:29.023Z,8.50
2023-05-19T17:38:56.114Z,8.25
2023-05-19T17:41:23.392Z,7.78
2023-05-19T17:43:51.048Z,8.50
2023-05-19T17:46:18.174Z,7.88
2023-05-19T17:48:45.309Z,8.68
2023-05-19T17:51:12.688Z,8.90
2023-05-19T17:53:40.023Z,7.97
2023-05-19T17:56:09.881Z,7.93
2023-05-19T17:58:37.057Z,8.32
2023-05-19T18:01:04.219Z,7.93
2023-05-19T18:03:31.999Z,8.27
2023-05-19T18:05:59.380Z,8.93
2023-05-19T18:08:27.147Z,8.20
2023-05-19T18:10:54.128Z,7.90
2023-05-19T18:13:22.276Z,8.10
2023-05-19T18:15:49.409Z,8.75
2023-05-19T18:18:16.429Z,8.77
2023-05-19T18:20:45.909Z,8.90
2023-05-19T18:23:12.858Z,8.05
2023-05-19T18:25:39.787Z,8.52
2023-05-19T18:28:07.819Z,8.52
2023-05-19T18:30:35.125Z,8.60
2023-05-19T18:33:04.090Z,8.45
2023-05-19T18:35:31.462Z,8.57
2023-05-19T18:37:58.493Z,8.43
2023-05-19T18:40:25.656Z,8.48
2023-05-19T18:42:52.697Z,9.55
2023-05-19T18:45:19.715Z,8.38
2023-05-19T18:47:46.824Z,8.40
2023-05-19T18:50:14.786Z,8.50
2023-05-19T18:52:41.716Z,8.65
2023-05-19T18:55:09.139Z,9.02
2023-05-19T18:57:36.182Z,9.60
2023-05-19T19:00:04.386Z,9.15
2023-05-19T19:02:31.706Z,9.68
2023-05-19T19:04:58.860Z,9.52
2023-05-19T19:07:28.173Z,9.50
2023-05-19T19:09:55.485Z,9.40
2023-05-19T19:12:22.452Z,10.45
2023-05-19T19:14:49.581Z,10.98
2023-05-19T19:17:16.816Z,9.40
2023-05-19T19:19:44.100Z,10.63
2023-05-19T19:22:11.445Z,10.75
2023-05-19T19:24:38.574Z,10.77
2023-05-19T19:27:05.958Z,11.02
2023-05-19T19:29:32.907Z,10.57
2023-05-19T19:32:00.162Z,10.02
2023-05-19T19:34:27.482Z,9.85
2023-05-19T19:36:54.491Z,10.80
2023-05-19T19:39:21.752Z,10.77
2023-05-19T19:41:48.861Z,11.13
2023-05-19T19:44:15.813Z,10.52
2023-05-19T19:46:42.732Z,10.20
2023-05-19T19:49:09.745Z,10.50
2023-05-19T19:51:36.763Z,10.85
2023-05-19T19:54:04.000Z,11.07
2023-05-19T19:56:31.074Z,10.70
2023-05-19T19:58:59.218Z,9.98
2023-05-19T20:01:28.063Z,10.00
2023-05-19T20:03:56.324Z,11.23
2023-05-19T20:06:23.485Z,10.55
2023-05-19T20:08:50.807Z,10.70
2023-05-19T20:11:18.621Z,11.00
2023-05-19T20:13:45.592Z,10.15
2023-05-19T20:16:12.499Z,10.18
2023-05-19T20:18:39.820Z,10.48
2023-05-19T20:21:06.870Z,10.75
2023-05-19T20:23:34.060Z,10.75
2023-05-19T20:26:11.931Z,10.50
2023-05-19T20:28:40.599Z,11.70
2023-05-19T20:31:07.886Z,11.65
2023-05-19T20:33:35.113Z,11.43
2023-05-19T20:36:02.069Z,11.55
2023-05-19T20:38:29.316Z,11.90
2023-05-19T20:40:56.734Z,11.63
2023-05-19T20:43:23.826Z,11.73
2023-05-19T20:45:51.682Z,12.23
2023-05-19T20:48:18.860Z,12.15
2023-05-19T20:50:46.061Z,11.85
2023-05-19T20:53:13.086Z,12.23
2023-05-19T20:55:40.217Z,12.70
2023-05-19T20:58:07.141Z,12.98
2023-05-19T21:00:34.187Z,12.55
2023-05-19T21:03:02.011Z,12.10
2023-05-19T21:05:29.207Z,11.90
2023-05-19T21:07:56.482Z,12.40
2023-05-19T21:10:23.634Z,11.52
2023-05-19T21:12:50.689Z,13.35
2023-05-19T21:15:17.639Z,11.73
2023-05-19T21:17:44.625Z,12.25
2023-05-19T21:20:11.889Z,12.05
2023-05-19T21:22:38.930Z,12.70
2023-05-19T21:25:06.579Z,12.45
2023-05-19T21:27:35.675Z,12.65
2023-05-19T21:30:02.986Z,12.05
2023-05-19T21:32:30.667Z,11.90
2023-05-19T21:34:57.717Z,12.30
2023-05-19T21:37:24.861Z,12.38
2023-05-19T21:39:51.779Z,11.82
2023-05-19T21:42:18.876Z,12.60
2023-05-19T21:44:45.862Z,11.73
2023-05-19T21:47:12.763Z,12.52
2023-05-19T21:49:40.804Z,11.27
2023-05-19T21:52:08.092Z,11.30
2023-05-19T21:54:35.111Z,11.45
2023-05-19T21:57:02.696Z,12.00
2023-05-19T21:59:29.895Z,11.73
2023-05-19T22:01:56.892Z,12.40
2023-05-19T22:04:23.874Z,12.25
2023-05-19T22:06:51.500Z,12.15
2023-05-19T22:09:19.059Z,12.90
2023-05-19T22:11:46.418Z,12.13
2023-05-19T22:14:14.034Z,11.48
2023-05-19T22:16:41.340Z,11.20
2023-05-19T22:19:08.520Z,11.50
2023-05-19T22:21:35.722Z,11.95
2023-05-19T22:24:02.903Z,12.50
2023-05-19T22:26:30.252Z,11.35
2023-05-19T22:28:57.636Z,11.27
2023-05-19T22:31:24.682Z,11.10
2023-05-19T22:33:51.792Z,11.93
2023-05-19T22:36:19.123Z,12.02
2023-05-19T22:38:46.148Z,12.55
2023-05-19T22:41:13.104Z,11.65
2023-05-19T22:43:40.147Z,11.18
2023-05-19T22:46:07.118Z,11.32
2023-05-19T22:48:34.299Z,11.43
2023-05-19T22:51:01.688Z,12.73
2023-05-19T22:53:28.612Z,12.07
2023-05-19T22:55:55.734Z,11.68
2023-05-19T22:58:22.595Z,12.07
2023-05-19T23:00:49.678Z,10.95
2023-05-19T23:03:16.764Z,11.63
2023-05-19T23:05:43.863Z,12.38
2023-05-19T23:08:11.028Z,11.15
2023-05-19T23:10:38.313Z,11.43
2023-05-19T23:13:05.752Z,10.75
2023-05-19T23:15:33.169Z,10.80
2023-05-19T23:18:01.949Z,10.68
2023-05-19T23:20:29.193Z,10.70
2023-05-19T23:22:56.136Z,10.20
2023-05-19T23:25:23.115Z,10.27
2023-05-19T23:27:50.276Z,9.70
2023-05-19T23:30:17.258Z,9.95
2023-05-19T23:32:44.346Z,10.00
2023-05-19T23:35:16.354Z,10.30
2023-05-19T23:37:43.773Z,9.82
2023-05-19T23:40:10.989Z,10.75
2023-05-19T23:42:38.087Z,10.50
2023-05-19T23:45:08.986Z,10.50
2023-05-19T23:47:36.042Z,10.13
2023-05-19T23:50:03.149Z,10.30
2023-05-19T23:52:30.220Z,10.25
2023-05-19T23:54:57.190Z,11.38
2023-05-19T23:57:24.187Z,10.85
2023-05-19T23:59:51.104Z,10.55
